KAGC METAR
PITTSBURGH/ALLEG, PA
Metar
KAGC 251853Z 21011G18KT 10SM OVC085 27/18 A3003 RMK AO2 PK WND 21028/1834 LTG DSNT SE SLP166 T02670178

18:53 UTC

Wind: 210° 11kt

Visibility: 10 SM

Sky: OVC 8500 ft

Temp: 27 deg C / 80.6 deg F

Dewpoint: 18 deg C / 64.4 deg F

Pressure: 30.03 inHg

TAF
KAGC 251732Z 2518/2618 22011G19KT P6SM VCSH BKN070 FM252200 23012G20KT P6SM VCTS BKN060CB TEMPO 2523/2602 27015G35KT 3SM TSRA BKN035CB FM260200 23009KT P6SM BKN050 FM260900 24006KT P6SM BKN015 FM261700 27009KT P6SM VCTS BKN035CB